sensor_id;sensor_type;location;lat;lon;timestamp;P1;durP1;ratioP1;P2;durP2;ratioP2
70920;SDS011;58572;48.110;19.838;2022-08-25T00:01:54;10.82;;;4.90;;
70920;SDS011;58572;48.110;19.838;2022-08-25T00:04:23;9.23;;;4.97;;
70920;SDS011;58572;48.110;19.838;2022-08-25T00:06:51;8.35;;;4.47;;
70920;SDS011;58572;48.110;19.838;2022-08-25T00:09:20;9.88;;;5.10;;
70920;SDS011;58572;48.110;19.838;2022-08-25T00:11:49;10.25;;;4.53;;
70920;SDS011;58572;48.110;19.838;2022-08-25T00:14:17;7.55;;;4.40;;
70920;SDS011;58572;48.110;19.838;2022-08-25T00:16:47;10.55;;;5.05;;
70920;SDS011;58572;48.110;19.838;2022-08-25T00:19:15;9.98;;;4.55;;
70920;SDS011;58572;48.110;19.838;2022-08-25T00:21:45;8.52;;;4.47;;
70920;SDS011;58572;48.110;19.838;2022-08-25T00:24:13;8.68;;;4.53;;
70920;SDS011;58572;48.110;19.838;2022-08-25T00:26:43;11.35;;;5.28;;
70920;SDS011;58572;48.110;19.838;2022-08-25T00:29:11;13.27;;;4.75;;
70920;SDS011;58572;48.110;19.838;2022-08-25T00:31:39;8.32;;;5.20;;
70920;SDS011;58572;48.110;19.838;2022-08-25T00:34:08;14.07;;;4.82;;
70920;SDS011;58572;48.110;19.838;2022-08-25T00:36:38;9.75;;;4.55;;
70920;SDS011;58572;48.110;19.838;2022-08-25T00:41:33;9.48;;;4.65;;
70920;SDS011;58572;48.110;19.838;2022-08-25T00:44:02;11.88;;;4.78;;
70920;SDS011;58572;48.110;19.838;2022-08-25T00:46:33;14.23;;;5.32;;
70920;SDS011;58572;48.110;19.838;2022-08-25T00:49:03;16.60;;;5.32;;
70920;SDS011;58572;48.110;19.838;2022-08-25T00:51:36;13.13;;;5.20;;
70920;SDS011;58572;48.110;19.838;2022-08-25T00:54:05;17.08;;;5.95;;
70920;SDS011;58572;48.110;19.838;2022-08-25T00:56:34;17.30;;;5.95;;
70920;SDS011;58572;48.110;19.838;2022-08-25T00:59:02;14.38;;;5.57;;
70920;SDS011;58572;48.110;19.838;2022-08-25T01:01:30;12.70;;;5.18;;
70920;SDS011;58572;48.110;19.838;2022-08-25T01:03:57;16.38;;;5.22;;
70920;SDS011;58572;48.110;19.838;2022-08-25T01:06:24;13.65;;;5.32;;
70920;SDS011;58572;48.110;19.838;2022-08-25T01:08:55;14.63;;;5.20;;
70920;SDS011;58572;48.110;19.838;2022-08-25T01:11:22;21.02;;;5.53;;
70920;SDS011;58572;48.110;19.838;2022-08-25T01:13:51;11.25;;;5.03;;
70920;SDS011;58572;48.110;19.838;2022-08-25T01:16:21;14.85;;;5.47;;
70920;SDS011;58572;48.110;19.838;2022-08-25T01:21:19;15.40;;;4.78;;
70920;SDS011;58572;48.110;19.838;2022-08-25T01:23:48;14.55;;;5.50;;
70920;SDS011;58572;48.110;19.838;2022-08-25T01:26:18;12.80;;;4.63;;
70920;SDS011;58572;48.110;19.838;2022-08-25T01:28:47;15.55;;;4.93;;
70920;SDS011;58572;48.110;19.838;2022-08-25T01:31:33;13.93;;;5.35;;
70920;SDS011;58572;48.110;19.838;2022-08-25T01:34:02;11.70;;;4.57;;
70920;SDS011;58572;48.110;19.838;2022-08-25T01:36:31;14.80;;;5.22;;
70920;SDS011;58572;48.110;19.838;2022-08-25T01:39:00;14.52;;;4.85;;
70920;SDS011;58572;48.110;19.838;2022-08-25T01:41:30;13.18;;;5.10;;
70920;SDS011;58572;48.110;19.838;2022-08-25T01:44:05;18.70;;;5.70;;
70920;SDS011;58572;48.110;19.838;2022-08-25T01:46:34;14.52;;;4.88;;
70920;SDS011;58572;48.110;19.838;2022-08-25T01:49:01;15.75;;;5.80;;
70920;SDS011;58572;48.110;19.838;2022-08-25T01:51:32;19.85;;;6.25;;
70920;SDS011;58572;48.110;19.838;2022-08-25T01:54:03;12.00;;;4.97;;
70920;SDS011;58572;48.110;19.838;2022-08-25T01:56:30;17.83;;;5.75;;
70920;SDS011;58572;48.110;19.838;2022-08-25T01:58:57;14.50;;;5.38;;
70920;SDS011;58572;48.110;19.838;2022-08-25T02:01:24;14.23;;;5.93;;
70920;SDS011;58572;48.110;19.838;2022-08-25T02:03:53;13.15;;;5.05;;
70920;SDS011;58572;48.110;19.838;2022-08-25T02:06:22;17.20;;;5.57;;
70920;SDS011;58572;48.110;19.838;2022-08-25T02:08:53;15.73;;;5.07;;
70920;SDS011;58572;48.110;19.838;2022-08-25T02:11:22;16.63;;;4.80;;
70920;SDS011;58572;48.110;19.838;2022-08-25T02:13:50;15.98;;;5.03;;
70920;SDS011;58572;48.110;19.838;2022-08-25T02:16:18;12.73;;;4.45;;
70920;SDS011;58572;48.110;19.838;2022-08-25T02:18:48;15.27;;;5.22;;
70920;SDS011;58572;48.110;19.838;2022-08-25T02:21:18;18.10;;;5.40;;
70920;SDS011;58572;48.110;19.838;2022-08-25T02:23:45;18.63;;;5.10;;
70920;SDS011;58572;48.110;19.838;2022-08-25T02:26:14;14.77;;;4.90;;
70920;SDS011;58572;48.110;19.838;2022-08-25T02:28:43;17.88;;;4.28;;
70920;SDS011;58572;48.110;19.838;2022-08-25T02:31:10;14.32;;;4.90;;
70920;SDS011;58572;48.110;19.838;2022-08-25T02:36:05;10.15;;;5.43;;
70920;SDS011;58572;48.110;19.838;2022-08-25T02:38:33;12.70;;;4.70;;
70920;SDS011;58572;48.110;19.838;2022-08-25T02:41:00;10.77;;;5.10;;
70920;SDS011;58572;48.110;19.838;2022-08-25T02:43:37;11.57;;;4.95;;
70920;SDS011;58572;48.110;19.838;2022-08-25T02:46:05;18.13;;;5.57;;
70920;SDS011;58572;48.110;19.838;2022-08-25T02:48:33;16.73;;;5.35;;
70920;SDS011;58572;48.110;19.838;2022-08-25T02:51:00;22.40;;;5.85;;
70920;SDS011;58572;48.110;19.838;2022-08-25T02:53:28;20.83;;;5.45;;
70920;SDS011;58572;48.110;19.838;2022-08-25T02:55:55;17.70;;;5.57;;
70920;SDS011;58572;48.110;19.838;2022-08-25T02:58:22;15.98;;;5.53;;
70920;SDS011;58572;48.110;19.838;2022-08-25T03:00:52;18.80;;;5.03;;
70920;SDS011;58572;48.110;19.838;2022-08-25T03:03:20;18.17;;;5.22;;
70920;SDS011;58572;48.110;19.838;2022-08-25T03:05:48;15.18;;;5.32;;
70920;SDS011;58572;48.110;19.838;2022-08-25T03:08:16;13.73;;;5.18;;
70920;SDS011;58572;48.110;19.838;2022-08-25T03:10:43;16.35;;;6.45;;
70920;SDS011;58572;48.110;19.838;2022-08-25T03:15:37;12.82;;;5.22;;
70920;SDS011;58572;48.110;19.838;2022-08-25T03:18:08;15.32;;;5.13;;
70920;SDS011;58572;48.110;19.838;2022-08-25T03:20:37;12.38;;;5.03;;
70920;SDS011;58572;48.110;19.838;2022-08-25T03:23:05;16.90;;;5.18;;
70920;SDS011;58572;48.110;19.838;2022-08-25T03:25:32;21.40;;;5.30;;
70920;SDS011;58572;48.110;19.838;2022-08-25T03:28:17;14.10;;;4.63;;
70920;SDS011;58572;48.110;19.838;2022-08-25T03:30:44;23.05;;;6.70;;
70920;SDS011;58572;48.110;19.838;2022-08-25T03:33:13;22.80;;;5.22;;
70920;SDS011;58572;48.110;19.838;2022-08-25T03:35:40;15.50;;;5.45;;
70920;SDS011;58572;48.110;19.838;2022-08-25T03:40:35;11.55;;;4.82;;
70920;SDS011;58572;48.110;19.838;2022-08-25T03:45:29;9.32;;;4.95;;
70920;SDS011;58572;48.110;19.838;2022-08-25T03:47:57;16.42;;;5.45;;
70920;SDS011;58572;48.110;19.838;2022-08-25T03:50:25;19.52;;;5.78;;
70920;SDS011;58572;48.110;19.838;2022-08-25T03:52:53;15.32;;;4.78;;
70920;SDS011;58572;48.110;19.838;2022-08-25T03:55:22;14.30;;;5.47;;
70920;SDS011;58572;48.110;19.838;2022-08-25T03:57:50;16.38;;;5.82;;
70920;SDS011;58572;48.110;19.838;2022-08-25T04:00:19;11.15;;;5.43;;
70920;SDS011;58572;48.110;19.838;2022-08-25T04:02:47;18.05;;;5.35;;
70920;SDS011;58572;48.110;19.838;2022-08-25T04:05:14;16.98;;;5.43;;
70920;SDS011;58572;48.110;19.838;2022-08-25T04:07:43;16.85;;;5.22;;
70920;SDS011;58572;48.110;19.838;2022-08-25T04:10:10;25.02;;;7.55;;
70920;SDS011;58572;48.110;19.838;2022-08-25T04:12:38;24.33;;;8.13;;
70920;SDS011;58572;48.110;19.838;2022-08-25T04:15:06;26.23;;;8.57;;
70920;SDS011;58572;48.110;19.838;2022-08-25T04:17:35;24.05;;;7.75;;
70920;SDS011;58572;48.110;19.838;2022-08-25T04:20:04;25.02;;;8.13;;
70920;SDS011;58572;48.110;19.838;2022-08-25T04:22:33;19.90;;;7.75;;
70920;SDS011;58572;48.110;19.838;2022-08-25T04:25:02;24.83;;;9.10;;
70920;SDS011;58572;48.110;19.838;2022-08-25T04:27:30;37.10;;;12.70;;
70920;SDS011;58572;48.110;19.838;2022-08-25T04:29:57;32.58;;;13.00;;
70920;SDS011;58572;48.110;19.838;2022-08-25T04:34:52;30.98;;;13.50;;
70920;SDS011;58572;48.110;19.838;2022-08-25T04:37:19;22.80;;;9.77;;
70920;SDS011;58572;48.110;19.838;2022-08-25T04:39:46;25.25;;;9.00;;
70920;SDS011;58572;48.110;19.838;2022-08-25T04:42:14;19.63;;;7.38;;
70920;SDS011;58572;48.110;19.838;2022-08-25T04:44:42;18.50;;;6.53;;
70920;SDS011;58572;48.110;19.838;2022-08-25T04:47:09;16.02;;;5.80;;
70920;SDS011;58572;48.110;19.838;2022-08-25T04:49:36;19.13;;;6.70;;
70920;SDS011;58572;48.110;19.838;2022-08-25T04:52:03;20.67;;;6.15;;
70920;SDS011;58572;48.110;19.838;2022-08-25T04:54:30;25.20;;;6.45;;
70920;SDS011;58572;48.110;19.838;2022-08-25T04:56:58;17.02;;;5.95;;
70920;SDS011;58572;48.110;19.838;2022-08-25T04:59:26;16.83;;;6.15;;
70920;SDS011;58572;48.110;19.838;2022-08-25T05:01:53;24.85;;;6.70;;
70920;SDS011;58572;48.110;19.838;2022-08-25T05:04:21;21.55;;;6.38;;
70920;SDS011;58572;48.110;19.838;2022-08-25T05:06:48;23.65;;;6.93;;
70920;SDS011;58572;48.110;19.838;2022-08-25T05:09:15;22.67;;;6.40;;
70920;SDS011;58572;48.110;19.838;2022-08-25T05:11:43;23.52;;;7.57;;
70920;SDS011;58572;48.110;19.838;2022-08-25T05:14:10;20.48;;;6.55;;
70920;SDS011;58572;48.110;19.838;2022-08-25T05:16:43;17.75;;;6.50;;
70920;SDS011;58572;48.110;19.838;2022-08-25T05:19:11;18.38;;;6.50;;
70920;SDS011;58572;48.110;19.838;2022-08-25T05:21:38;17.30;;;5.45;;
70920;SDS011;58572;48.110;19.838;2022-08-25T05:24:06;20.40;;;6.47;;
70920;SDS011;58572;48.110;19.838;2022-08-25T05:26:33;16.85;;;5.85;;
70920;SDS011;58572;48.110;19.838;2022-08-25T05:29:04;17.10;;;5.90;;
70920;SDS011;58572;48.110;19.838;2022-08-25T05:31:35;20.75;;;6.35;;
70920;SDS011;58572;48.110;19.838;2022-08-25T05:34:05;22.83;;;6.88;;
70920;SDS011;58572;48.110;19.838;2022-08-25T05:36:33;22.00;;;6.40;;
70920;SDS011;58572;48.110;19.838;2022-08-25T05:39:01;20.70;;;6.63;;
70920;SDS011;58572;48.110;19.838;2022-08-25T05:41:29;18.30;;;5.88;;
70920;SDS011;58572;48.110;19.838;2022-08-25T05:43:57;27.00;;;7.97;;
70920;SDS011;58572;48.110;19.838;2022-08-25T05:46:24;24.90;;;8.18;;
70920;SDS011;58572;48.110;19.838;2022-08-25T05:48:52;31.33;;;9.30;;
70920;SDS011;58572;48.110;19.838;2022-08-25T05:51:21;26.40;;;8.45;;
70920;SDS011;58572;48.110;19.838;2022-08-25T05:53:49;23.77;;;8.15;;
70920;SDS011;58572;48.110;19.838;2022-08-25T05:56:17;29.90;;;8.35;;
70920;SDS011;58572;48.110;19.838;2022-08-25T05:58:44;18.95;;;7.50;;
70920;SDS011;58572;48.110;19.838;2022-08-25T06:01:19;17.35;;;7.32;;
70920;SDS011;58572;48.110;19.838;2022-08-25T06:04:06;25.13;;;7.75;;
70920;SDS011;58572;48.110;19.838;2022-08-25T06:09:02;14.98;;;6.03;;
70920;SDS011;58572;48.110;19.838;2022-08-25T06:11:33;23.10;;;7.30;;
70920;SDS011;58572;48.110;19.838;2022-08-25T06:14:02;14.93;;;6.05;;
70920;SDS011;58572;48.110;19.838;2022-08-25T06:18:57;26.02;;;7.75;;
70920;SDS011;58572;48.110;19.838;2022-08-25T06:21:25;25.10;;;8.00;;
70920;SDS011;58572;48.110;19.838;2022-08-25T06:23:54;26.90;;;8.43;;
70920;SDS011;58572;48.110;19.838;2022-08-25T06:26:21;25.30;;;7.88;;
70920;SDS011;58572;48.110;19.838;2022-08-25T06:31:16;25.00;;;7.97;;
70920;SDS011;58572;48.110;19.838;2022-08-25T06:33:44;31.17;;;10.05;;
70920;SDS011;58572;48.110;19.838;2022-08-25T06:36:12;23.33;;;8.52;;
70920;SDS011;58572;48.110;19.838;2022-08-25T06:41:08;29.42;;;8.55;;
70920;SDS011;58572;48.110;19.838;2022-08-25T06:43:37;24.33;;;8.60;;
70920;SDS011;58572;48.110;19.838;2022-08-25T06:46:08;30.73;;;9.00;;
70920;SDS011;58572;48.110;19.838;2022-08-25T06:48:37;24.80;;;9.27;;
70920;SDS011;58572;48.110;19.838;2022-08-25T06:51:05;23.63;;;9.25;;
70920;SDS011;58572;48.110;19.838;2022-08-25T06:53:33;25.85;;;8.63;;
70920;SDS011;58572;48.110;19.838;2022-08-25T06:56:01;25.30;;;7.90;;
70920;SDS011;58572;48.110;19.838;2022-08-25T06:58:31;28.10;;;8.70;;
70920;SDS011;58572;48.110;19.838;2022-08-25T07:01:05;30.83;;;13.13;;
70920;SDS011;58572;48.110;19.838;2022-08-25T07:03:33;32.33;;;11.40;;
70920;SDS011;58572;48.110;19.838;2022-08-25T07:06:01;27.40;;;11.30;;
70920;SDS011;58572;48.110;19.838;2022-08-25T07:08:29;21.70;;;8.02;;
70920;SDS011;58572;48.110;19.838;2022-08-25T07:10:56;23.60;;;8.63;;
70920;SDS011;58572;48.110;19.838;2022-08-25T07:13:24;21.05;;;8.07;;
70920;SDS011;58572;48.110;19.838;2022-08-25T07:15:53;21.90;;;7.63;;
70920;SDS011;58572;48.110;19.838;2022-08-25T07:18:21;23.40;;;8.23;;
70920;SDS011;58572;48.110;19.838;2022-08-25T07:20:48;25.40;;;9.30;;
70920;SDS011;58572;48.110;19.838;2022-08-25T07:23:16;25.30;;;7.93;;
70920;SDS011;58572;48.110;19.838;2022-08-25T07:25:44;26.15;;;8.43;;
70920;SDS011;58572;48.110;19.838;2022-08-25T07:28:11;23.83;;;8.38;;
70920;SDS011;58572;48.110;19.838;2022-08-25T07:33:07;23.63;;;7.50;;
70920;SDS011;58572;48.110;19.838;2022-08-25T07:35:35;24.02;;;7.80;;
70920;SDS011;58572;48.110;19.838;2022-08-25T07:38:02;27.83;;;9.20;;
70920;SDS011;58572;48.110;19.838;2022-08-25T07:40:31;21.30;;;7.85;;
70920;SDS011;58572;48.110;19.838;2022-08-25T07:43:01;19.85;;;7.70;;
70920;SDS011;58572;48.110;19.838;2022-08-25T07:45:32;19.63;;;7.30;;
70920;SDS011;58572;48.110;19.838;2022-08-25T07:48:01;21.75;;;7.70;;
70920;SDS011;58572;48.110;19.838;2022-08-25T07:50:32;29.90;;;7.43;;
70920;SDS011;58572;48.110;19.838;2022-08-25T07:53:03;20.25;;;7.18;;
70920;SDS011;58572;48.110;19.838;2022-08-25T07:55:31;24.85;;;6.32;;
70920;SDS011;58572;48.110;19.838;2022-08-25T07:58:01;22.35;;;5.97;;
70920;SDS011;58572;48.110;19.838;2022-08-25T08:00:29;17.35;;;6.25;;
70920;SDS011;58572;48.110;19.838;2022-08-25T08:02:58;18.83;;;6.35;;
70920;SDS011;58572;48.110;19.838;2022-08-25T08:05:26;22.17;;;5.32;;
70920;SDS011;58572;48.110;19.838;2022-08-25T08:10:22;25.98;;;6.38;;
70920;SDS011;58572;48.110;19.838;2022-08-25T08:12:49;20.23;;;5.95;;
70920;SDS011;58572;48.110;19.838;2022-08-25T08:15:17;22.00;;;5.53;;
70920;SDS011;58572;48.110;19.838;2022-08-25T08:17:44;24.50;;;5.75;;
70920;SDS011;58572;48.110;19.838;2022-08-25T08:20:12;23.10;;;5.13;;
70920;SDS011;58572;48.110;19.838;2022-08-25T08:22:41;18.65;;;5.65;;
70920;SDS011;58572;48.110;19.838;2022-08-25T08:25:11;20.98;;;5.15;;
70920;SDS011;58572;48.110;19.838;2022-08-25T08:27:39;30.17;;;5.97;;
70920;SDS011;58572;48.110;19.838;2022-08-25T08:30:07;23.65;;;5.18;;
70920;SDS011;58572;48.110;19.838;2022-08-25T08:32:35;25.65;;;5.43;;
70920;SDS011;58572;48.110;19.838;2022-08-25T08:35:03;19.88;;;5.38;;
70920;SDS011;58572;48.110;19.838;2022-08-25T08:37:31;22.08;;;5.30;;
70920;SDS011;58572;48.110;19.838;2022-08-25T08:40:02;15.70;;;5.35;;
70920;SDS011;58572;48.110;19.838;2022-08-25T08:45:31;25.23;;;5.72;;
70920;SDS011;58572;48.110;19.838;2022-08-25T08:48:09;17.70;;;4.88;;
70920;SDS011;58572;48.110;19.838;2022-08-25T08:51:04;18.23;;;5.05;;
70920;SDS011;58572;48.110;19.838;2022-08-25T08:53:44;19.42;;;5.28;;
70920;SDS011;58572;48.110;19.838;2022-08-25T08:56:19;21.60;;;5.13;;
70920;SDS011;58572;48.110;19.838;2022-08-25T08:58:51;19.60;;;5.10;;
70920;SDS011;58572;48.110;19.838;2022-08-25T09:01:24;25.77;;;5.40;;
70920;SDS011;58572;48.110;19.838;2022-08-25T09:03:55;17.73;;;5.57;;
70920;SDS011;58572;48.110;19.838;2022-08-25T09:06:30;21.98;;;4.93;;
70920;SDS011;58572;48.110;19.838;2022-08-25T09:09:04;15.65;;;3.80;;
70920;SDS011;58572;48.110;19.838;2022-08-25T09:11:42;19.40;;;4.88;;
70920;SDS011;58572;48.110;19.838;2022-08-25T09:14:23;17.65;;;4.55;;
70920;SDS011;58572;48.110;19.838;2022-08-25T09:17:05;17.70;;;3.90;;
70920;SDS011;58572;48.110;19.838;2022-08-25T09:22:37;22.33;;;4.35;;
70920;SDS011;58572;48.110;19.838;2022-08-25T09:25:14;20.85;;;4.03;;
70920;SDS011;58572;48.110;19.838;2022-08-25T09:27:48;14.05;;;3.95;;
70920;SDS011;58572;48.110;19.838;2022-08-25T09:30:22;12.98;;;4.00;;
70920;SDS011;58572;48.110;19.838;2022-08-25T09:32:51;13.43;;;3.80;;
70920;SDS011;58572;48.110;19.838;2022-08-25T09:35:28;13.48;;;4.63;;
70920;SDS011;58572;48.110;19.838;2022-08-25T09:37:57;12.32;;;4.07;;
70920;SDS011;58572;48.110;19.838;2022-08-25T09:40:26;14.73;;;4.10;;
70920;SDS011;58572;48.110;19.838;2022-08-25T09:42:56;17.48;;;4.05;;
70920;SDS011;58572;48.110;19.838;2022-08-25T09:45:31;12.70;;;3.78;;
70920;SDS011;58572;48.110;19.838;2022-08-25T09:48:03;16.50;;;3.63;;
70920;SDS011;58572;48.110;19.838;2022-08-25T09:50:46;12.05;;;3.55;;
70920;SDS011;58572;48.110;19.838;2022-08-25T09:53:15;12.40;;;3.83;;
70920;SDS011;58572;48.110;19.838;2022-08-25T09:55:43;14.23;;;3.67;;
70920;SDS011;58572;48.110;19.838;2022-08-25T09:58:16;14.32;;;3.38;;
70920;SDS011;58572;48.110;19.838;2022-08-25T10:00:47;13.40;;;3.75;;
70920;SDS011;58572;48.110;19.838;2022-08-25T10:03:51;12.23;;;3.45;;
70920;SDS011;58572;48.110;19.838;2022-08-25T10:06:20;17.67;;;3.00;;
70920;SDS011;58572;48.110;19.838;2022-08-25T10:08:54;11.05;;;2.92;;
70920;SDS011;58572;48.110;19.838;2022-08-25T10:11:29;13.70;;;3.80;;
70920;SDS011;58572;48.110;19.838;2022-08-25T10:14:03;13.70;;;3.65;;
70920;SDS011;58572;48.110;19.838;2022-08-25T10:16:33;9.13;;;3.45;;
70920;SDS011;58572;48.110;19.838;2022-08-25T10:19:04;15.60;;;3.97;;
70920;SDS011;58572;48.110;19.838;2022-08-25T10:21:33;20.08;;;3.35;;
70920;SDS011;58572;48.110;19.838;2022-08-25T10:24:02;15.88;;;3.15;;
70920;SDS011;58572;48.110;19.838;2022-08-25T10:26:33;14.85;;;3.97;;
70920;SDS011;58572;48.110;19.838;2022-08-25T10:32:02;15.52;;;3.50;;
70920;SDS011;58572;48.110;19.838;2022-08-25T10:34:40;18.83;;;4.30;;
70920;SDS011;58572;48.110;19.838;2022-08-25T10:37:17;17.25;;;3.75;;
70920;SDS011;58572;48.110;19.838;2022-08-25T10:39:55;17.80;;;3.95;;
70920;SDS011;58572;48.110;19.838;2022-08-25T10:42:30;12.65;;;3.72;;
70920;SDS011;58572;48.110;19.838;2022-08-25T10:45:13;13.20;;;4.80;;
70920;SDS011;58572;48.110;19.838;2022-08-25T10:51:12;7.05;;;2.75;;
70920;SDS011;58572;48.110;19.838;2022-08-25T10:53:56;14.35;;;3.15;;
70920;SDS011;58572;48.110;19.838;2022-08-25T10:56:33;13.85;;;3.60;;
70920;SDS011;58572;48.110;19.838;2022-08-25T10:59:12;15.98;;;3.42;;
70920;SDS011;58572;48.110;19.838;2022-08-25T11:04:55;14.38;;;3.83;;
70920;SDS011;58572;48.110;19.838;2022-08-25T11:07:29;13.15;;;3.33;;
70920;SDS011;58572;48.110;19.838;2022-08-25T11:10:02;14.25;;;3.53;;
70920;SDS011;58572;48.110;19.838;2022-08-25T11:12:33;11.23;;;3.00;;
70920;SDS011;58572;48.110;19.838;2022-08-25T11:15:06;11.45;;;3.25;;
70920;SDS011;58572;48.110;19.838;2022-08-25T11:17:38;15.65;;;3.97;;
70920;SDS011;58572;48.110;19.838;2022-08-25T11:20:13;10.73;;;3.20;;
70920;SDS011;58572;48.110;19.838;2022-08-25T11:22:45;12.63;;;3.30;;
70920;SDS011;58572;48.110;19.838;2022-08-25T11:25:18;15.10;;;3.40;;
70920;SDS011;58572;48.110;19.838;2022-08-25T11:27:52;14.20;;;3.47;;
70920;SDS011;58572;48.110;19.838;2022-08-25T11:30:26;19.17;;;3.63;;
70920;SDS011;58572;48.110;19.838;2022-08-25T11:32:54;14.88;;;3.45;;
70920;SDS011;58572;48.110;19.838;2022-08-25T11:35:26;11.18;;;3.03;;
70920;SDS011;58572;48.110;19.838;2022-08-25T11:38:02;11.60;;;3.17;;
70920;SDS011;58572;48.110;19.838;2022-08-25T11:40:42;15.13;;;3.28;;
70920;SDS011;58572;48.110;19.838;2022-08-25T11:43:27;19.42;;;3.80;;
70920;SDS011;58572;48.110;19.838;2022-08-25T11:46:08;13.55;;;3.85;;
70920;SDS011;58572;48.110;19.838;2022-08-25T11:48:50;15.52;;;3.28;;
70920;SDS011;58572;48.110;19.838;2022-08-25T11:51:27;18.67;;;4.18;;
70920;SDS011;58572;48.110;19.838;2022-08-25T11:56:58;12.23;;;3.40;;
70920;SDS011;58572;48.110;19.838;2022-08-25T12:02:33;15.05;;;3.72;;
70920;SDS011;58572;48.110;19.838;2022-08-25T12:05:02;12.68;;;3.00;;
70920;SDS011;58572;48.110;19.838;2022-08-25T12:11:01;14.93;;;3.40;;
70920;SDS011;58572;48.110;19.838;2022-08-25T12:13:37;13.13;;;3.30;;
70920;SDS011;58572;48.110;19.838;2022-08-25T12:21:54;11.50;;;3.40;;
70920;SDS011;58572;48.110;19.838;2022-08-25T12:24:24;13.73;;;4.22;;
70920;SDS011;58572;48.110;19.838;2022-08-25T12:27:21;17.08;;;3.80;;
70920;SDS011;58572;48.110;19.838;2022-08-25T12:29:54;16.65;;;3.40;;
70920;SDS011;58572;48.110;19.838;2022-08-25T12:32:37;16.90;;;3.78;;
70920;SDS011;58572;48.110;19.838;2022-08-25T12:35:25;13.30;;;3.38;;
70920;SDS011;58572;48.110;19.838;2022-08-25T12:38:00;17.90;;;3.13;;
70920;SDS011;58572;48.110;19.838;2022-08-25T12:40:31;18.25;;;3.10;;
70920;SDS011;58572;48.110;19.838;2022-08-25T12:43:04;13.95;;;3.17;;
70920;SDS011;58572;48.110;19.838;2022-08-25T12:45:36;20.83;;;4.18;;
70920;SDS011;58572;48.110;19.838;2022-08-25T12:51:14;15.10;;;3.63;;
70920;SDS011;58572;48.110;19.838;2022-08-25T12:53:45;15.07;;;3.53;;
70920;SDS011;58572;48.110;19.838;2022-08-25T12:56:20;15.10;;;3.20;;
70920;SDS011;58572;48.110;19.838;2022-08-25T12:58:56;14.40;;;3.15;;
70920;SDS011;58572;48.110;19.838;2022-08-25T13:01:37;13.93;;;3.03;;
70920;SDS011;58572;48.110;19.838;2022-08-25T13:04:43;12.05;;;3.50;;
70920;SDS011;58572;48.110;19.838;2022-08-25T13:07:29;14.88;;;3.50;;
70920;SDS011;58572;48.110;19.838;2022-08-25T13:10:15;17.08;;;3.50;;
70920;SDS011;58572;48.110;19.838;2022-08-25T13:12:50;13.43;;;3.65;;
70920;SDS011;58572;48.110;19.838;2022-08-25T13:15:27;12.50;;;3.40;;
70920;SDS011;58572;48.110;19.838;2022-08-25T13:18:12;18.33;;;3.92;;
70920;SDS011;58572;48.110;19.838;2022-08-25T13:20:52;13.88;;;3.30;;
70920;SDS011;58572;48.110;19.838;2022-08-25T13:23:28;10.13;;;3.42;;
70920;SDS011;58572;48.110;19.838;2022-08-25T13:25:57;13.00;;;3.80;;
70920;SDS011;58572;48.110;19.838;2022-08-25T13:33:25;23.05;;;4.05;;
70920;SDS011;58572;48.110;19.838;2022-08-25T13:35:53;13.68;;;3.40;;
70920;SDS011;58572;48.110;19.838;2022-08-25T13:38:36;14.82;;;3.90;;
70920;SDS011;58572;48.110;19.838;2022-08-25T13:43:33;17.52;;;3.38;;
70920;SDS011;58572;48.110;19.838;2022-08-25T13:46:03;15.50;;;3.50;;
70920;SDS011;58572;48.110;19.838;2022-08-25T13:48:31;12.52;;;3.45;;
70920;SDS011;58572;48.110;19.838;2022-08-25T13:51:07;11.10;;;3.53;;
70920;SDS011;58572;48.110;19.838;2022-08-25T13:56:31;11.18;;;3.60;;
70920;SDS011;58572;48.110;19.838;2022-08-25T13:59:01;18.92;;;3.67;;
70920;SDS011;58572;48.110;19.838;2022-08-25T14:01:32;10.48;;;3.88;;
70920;SDS011;58572;48.110;19.838;2022-08-25T14:04:27;15.77;;;4.25;;
70920;SDS011;58572;48.110;19.838;2022-08-25T14:07:04;17.95;;;3.53;;
70920;SDS011;58572;48.110;19.838;2022-08-25T14:09:51;15.35;;;3.55;;
70920;SDS011;58572;48.110;19.838;2022-08-25T14:12:27;11.75;;;3.70;;
70920;SDS011;58572;48.110;19.838;2022-08-25T14:15:03;15.95;;;3.50;;
70920;SDS011;58572;48.110;19.838;2022-08-25T14:17:35;20.00;;;3.50;;
70920;SDS011;58572;48.110;19.838;2022-08-25T14:20:06;10.43;;;3.17;;
70920;SDS011;58572;48.110;19.838;2022-08-25T14:22:44;15.30;;;3.58;;
70920;SDS011;58572;48.110;19.838;2022-08-25T14:25:12;13.23;;;3.53;;
70920;SDS011;58572;48.110;19.838;2022-08-25T14:27:40;14.95;;;3.38;;
70920;SDS011;58572;48.110;19.838;2022-08-25T14:30:09;17.35;;;3.92;;
70920;SDS011;58572;48.110;19.838;2022-08-25T14:32:39;13.65;;;3.15;;
70920;SDS011;58572;48.110;19.838;2022-08-25T14:35:07;16.65;;;4.10;;
70920;SDS011;58572;48.110;19.838;2022-08-25T14:37:35;16.73;;;4.07;;
70920;SDS011;58572;48.110;19.838;2022-08-25T14:42:29;11.70;;;3.22;;
70920;SDS011;58572;48.110;19.838;2022-08-25T14:47:23;12.93;;;3.50;;
70920;SDS011;58572;48.110;19.838;2022-08-25T14:52:22;17.52;;;4.55;;
70920;SDS011;58572;48.110;19.838;2022-08-25T14:54:56;16.25;;;3.50;;
70920;SDS011;58572;48.110;19.838;2022-08-25T14:59:50;11.02;;;3.03;;
70920;SDS011;58572;48.110;19.838;2022-08-25T15:02:18;16.70;;;3.13;;
70920;SDS011;58572;48.110;19.838;2022-08-25T15:04:49;14.02;;;3.15;;
70920;SDS011;58572;48.110;19.838;2022-08-25T15:07:21;12.55;;;3.50;;
70920;SDS011;58572;48.110;19.838;2022-08-25T15:12:34;12.27;;;3.50;;
70920;SDS011;58572;48.110;19.838;2022-08-25T15:17:28;15.40;;;3.00;;
70920;SDS011;58572;48.110;19.838;2022-08-25T15:19:57;15.20;;;3.38;;
70920;SDS011;58572;48.110;19.838;2022-08-25T15:22:24;13.55;;;3.30;;
70920;SDS011;58572;48.110;19.838;2022-08-25T15:24:51;10.88;;;3.22;;
70920;SDS011;58572;48.110;19.838;2022-08-25T15:29:46;16.52;;;3.85;;
70920;SDS011;58572;48.110;19.838;2022-08-25T15:32:13;11.48;;;3.25;;
70920;SDS011;58572;48.110;19.838;2022-08-25T15:34:40;17.40;;;3.75;;
70920;SDS011;58572;48.110;19.838;2022-08-25T15:37:12;9.18;;;2.83;;
70920;SDS011;58572;48.110;19.838;2022-08-25T15:39:40;11.27;;;3.13;;
70920;SDS011;58572;48.110;19.838;2022-08-25T15:42:10;21.92;;;3.83;;
70920;SDS011;58572;48.110;19.838;2022-08-25T15:44:38;18.67;;;3.38;;
70920;SDS011;58572;48.110;19.838;2022-08-25T15:47:05;14.30;;;3.28;;
70920;SDS011;58572;48.110;19.838;2022-08-25T15:49:32;10.48;;;2.95;;
70920;SDS011;58572;48.110;19.838;2022-08-25T15:52:00;15.45;;;3.25;;
70920;SDS011;58572;48.110;19.838;2022-08-25T15:54:29;12.43;;;3.38;;
70920;SDS011;58572;48.110;19.838;2022-08-25T15:56:57;11.07;;;2.90;;
70920;SDS011;58572;48.110;19.838;2022-08-25T15:59:24;14.90;;;3.28;;
70920;SDS011;58572;48.110;19.838;2022-08-25T16:01:52;14.88;;;3.67;;
70920;SDS011;58572;48.110;19.838;2022-08-25T16:04:20;18.92;;;3.67;;
70920;SDS011;58572;48.110;19.838;2022-08-25T16:06:47;15.07;;;3.15;;
70920;SDS011;58572;48.110;19.838;2022-08-25T16:09:16;18.75;;;3.65;;
70920;SDS011;58572;48.110;19.838;2022-08-25T16:11:44;17.98;;;3.10;;
70920;SDS011;58572;48.110;19.838;2022-08-25T16:14:12;17.50;;;3.50;;
70920;SDS011;58572;48.110;19.838;2022-08-25T16:19:06;17.25;;;3.53;;